sensor_id;sensor_type;location;lat;lon;timestamp;P1;durP1;ratioP1;P2;durP2;ratioP2
41721;SDS011;27407;24.142;-110.310;2023-08-06T00:00:56;24.55;;;4.65;;
41721;SDS011;27407;24.142;-110.310;2023-08-06T00:03:23;18.50;;;4.07;;
41721;SDS011;27407;24.142;-110.310;2023-08-06T00:05:50;57.40;;;6.72;;
41721;SDS011;27407;24.142;-110.310;2023-08-06T00:08:16;29.52;;;4.68;;
41721;SDS011;27407;24.142;-110.310;2023-08-06T00:10:43;25.08;;;4.40;;
41721;SDS011;27407;24.142;-110.310;2023-08-06T00:13:10;49.03;;;7.25;;
41721;SDS011;27407;24.142;-110.310;2023-08-06T00:15:36;25.20;;;4.18;;
41721;SDS011;27407;24.142;-110.310;2023-08-06T00:18:03;19.38;;;2.92;;
41721;SDS011;27407;24.142;-110.310;2023-08-06T00:20:30;15.65;;;2.78;;
41721;SDS011;27407;24.142;-110.310;2023-08-06T00:22:56;19.50;;;3.22;;
41721;SDS011;27407;24.142;-110.310;2023-08-06T00:25:23;16.77;;;2.88;;
41721;SDS011;27407;24.142;-110.310;2023-08-06T00:27:49;34.45;;;3.83;;
41721;SDS011;27407;24.142;-110.310;2023-08-06T00:30:16;33.65;;;4.75;;
41721;SDS011;27407;24.142;-110.310;2023-08-06T00:32:43;36.80;;;3.83;;
41721;SDS011;27407;24.142;-110.310;2023-08-06T00:35:10;28.63;;;2.85;;
41721;SDS011;27407;24.142;-110.310;2023-08-06T00:37:38;11.57;;;2.80;;
41721;SDS011;27407;24.142;-110.310;2023-08-06T00:40:06;15.77;;;2.92;;
41721;SDS011;27407;24.142;-110.310;2023-08-06T00:42:33;41.50;;;5.95;;
41721;SDS011;27407;24.142;-110.310;2023-08-06T00:45:00;36.45;;;4.38;;
41721;SDS011;27407;24.142;-110.310;2023-08-06T00:47:28;25.70;;;4.65;;
41721;SDS011;27407;24.142;-110.310;2023-08-06T00:49:55;18.90;;;4.10;;
41721;SDS011;27407;24.142;-110.310;2023-08-06T00:52:21;13.70;;;4.10;;
41721;SDS011;27407;24.142;-110.310;2023-08-06T00:54:48;18.25;;;3.60;;
41721;SDS011;27407;24.142;-110.310;2023-08-06T00:57:15;22.33;;;3.22;;
41721;SDS011;27407;24.142;-110.310;2023-08-06T00:59:43;17.02;;;3.70;;
41721;SDS011;27407;24.142;-110.310;2023-08-06T01:02:11;13.02;;;3.38;;
41721;SDS011;27407;24.142;-110.310;2023-08-06T01:04:37;11.43;;;3.50;;
41721;SDS011;27407;24.142;-110.310;2023-08-06T01:07:18;27.98;;;4.72;;
41721;SDS011;27407;24.142;-110.310;2023-08-06T01:12:57;13.63;;;3.00;;
41721;SDS011;27407;24.142;-110.310;2023-08-06T01:15:46;17.23;;;3.50;;
41721;SDS011;27407;24.142;-110.310;2023-08-06T01:18:15;71.45;;;7.80;;
41721;SDS011;27407;24.142;-110.310;2023-08-06T01:20:42;50.83;;;5.55;;
41721;SDS011;27407;24.142;-110.310;2023-08-06T01:23:09;17.15;;;3.55;;
41721;SDS011;27407;24.142;-110.310;2023-08-06T01:28:38;14.30;;;3.63;;
41721;SDS011;27407;24.142;-110.310;2023-08-06T01:31:10;14.52;;;2.90;;
41721;SDS011;27407;24.142;-110.310;2023-08-06T01:33:44;21.77;;;3.95;;
41721;SDS011;27407;24.142;-110.310;2023-08-06T01:36:14;48.30;;;6.05;;
41721;SDS011;27407;24.142;-110.310;2023-08-06T01:38:43;29.75;;;5.25;;
41721;SDS011;27407;24.142;-110.310;2023-08-06T01:41:10;40.95;;;5.10;;
41721;SDS011;27407;24.142;-110.310;2023-08-06T01:43:36;12.98;;;3.55;;
41721;SDS011;27407;24.142;-110.310;2023-08-06T01:46:03;19.42;;;3.25;;
41721;SDS011;27407;24.142;-110.310;2023-08-06T01:48:29;20.27;;;4.07;;
41721;SDS011;27407;24.142;-110.310;2023-08-06T01:50:56;20.35;;;3.92;;
41721;SDS011;27407;24.142;-110.310;2023-08-06T01:53:23;23.92;;;4.43;;
41721;SDS011;27407;24.142;-110.310;2023-08-06T01:55:49;27.70;;;4.97;;
41721;SDS011;27407;24.142;-110.310;2023-08-06T01:58:16;26.95;;;4.65;;
41721;SDS011;27407;24.142;-110.310;2023-08-06T02:00:43;10.05;;;3.22;;
41721;SDS011;27407;24.142;-110.310;2023-08-06T02:03:09;15.60;;;4.38;;
41721;SDS011;27407;24.142;-110.310;2023-08-06T02:05:36;33.85;;;4.85;;
41721;SDS011;27407;24.142;-110.310;2023-08-06T02:08:03;39.33;;;4.85;;
41721;SDS011;27407;24.142;-110.310;2023-08-06T02:10:29;22.42;;;4.10;;
41721;SDS011;27407;24.142;-110.310;2023-08-06T02:12:56;15.15;;;3.92;;
41721;SDS011;27407;24.142;-110.310;2023-08-06T02:15:23;36.05;;;4.97;;
41721;SDS011;27407;24.142;-110.310;2023-08-06T02:17:49;14.93;;;3.90;;
41721;SDS011;27407;24.142;-110.310;2023-08-06T02:20:16;13.00;;;3.58;;
41721;SDS011;27407;24.142;-110.310;2023-08-06T02:22:43;21.00;;;4.30;;
41721;SDS011;27407;24.142;-110.310;2023-08-06T02:25:09;28.30;;;5.15;;
41721;SDS011;27407;24.142;-110.310;2023-08-06T02:27:36;30.23;;;5.38;;
41721;SDS011;27407;24.142;-110.310;2023-08-06T02:30:04;29.27;;;4.63;;
41721;SDS011;27407;24.142;-110.310;2023-08-06T02:32:31;15.68;;;3.72;;
41721;SDS011;27407;24.142;-110.310;2023-08-06T02:35:01;12.38;;;3.40;;
41721;SDS011;27407;24.142;-110.310;2023-08-06T02:37:28;18.63;;;4.28;;
41721;SDS011;27407;24.142;-110.310;2023-08-06T02:39:54;14.68;;;4.05;;
41721;SDS011;27407;24.142;-110.310;2023-08-06T02:42:21;17.38;;;4.85;;
41721;SDS011;27407;24.142;-110.310;2023-08-06T02:44:49;19.73;;;3.88;;
41721;SDS011;27407;24.142;-110.310;2023-08-06T02:47:15;22.83;;;5.07;;
41721;SDS011;27407;24.142;-110.310;2023-08-06T02:49:42;15.15;;;3.83;;
41721;SDS011;27407;24.142;-110.310;2023-08-06T02:52:09;30.27;;;5.00;;
41721;SDS011;27407;24.142;-110.310;2023-08-06T02:54:36;58.67;;;7.20;;
41721;SDS011;27407;24.142;-110.310;2023-08-06T02:57:03;31.52;;;5.28;;
41721;SDS011;27407;24.142;-110.310;2023-08-06T02:59:30;15.07;;;3.97;;
41721;SDS011;27407;24.142;-110.310;2023-08-06T03:01:57;39.00;;;4.72;;
41721;SDS011;27407;24.142;-110.310;2023-08-06T03:04:24;54.13;;;6.72;;
41721;SDS011;27407;24.142;-110.310;2023-08-06T03:06:50;13.70;;;3.70;;
41721;SDS011;27407;24.142;-110.310;2023-08-06T03:09:17;21.88;;;4.78;;
41721;SDS011;27407;24.142;-110.310;2023-08-06T03:11:44;26.73;;;5.28;;
41721;SDS011;27407;24.142;-110.310;2023-08-06T03:14:11;19.75;;;4.18;;
41721;SDS011;27407;24.142;-110.310;2023-08-06T03:16:37;57.47;;;6.72;;
41721;SDS011;27407;24.142;-110.310;2023-08-06T03:19:04;100.50;;;9.85;;
41721;SDS011;27407;24.142;-110.310;2023-08-06T03:21:31;16.92;;;3.60;;
41721;SDS011;27407;24.142;-110.310;2023-08-06T03:23:57;13.50;;;4.38;;
41721;SDS011;27407;24.142;-110.310;2023-08-06T03:26:24;23.67;;;4.03;;
41721;SDS011;27407;24.142;-110.310;2023-08-06T03:28:51;17.75;;;4.30;;
41721;SDS011;27407;24.142;-110.310;2023-08-06T03:31:17;11.32;;;3.63;;
41721;SDS011;27407;24.142;-110.310;2023-08-06T03:33:44;24.23;;;4.18;;
41721;SDS011;27407;24.142;-110.310;2023-08-06T03:36:11;17.00;;;4.40;;
41721;SDS011;27407;24.142;-110.310;2023-08-06T03:38:37;261.85;;;24.42;;
41721;SDS011;27407;24.142;-110.310;2023-08-06T03:41:04;41.20;;;5.93;;
41721;SDS011;27407;24.142;-110.310;2023-08-06T03:43:30;61.22;;;7.25;;
41721;SDS011;27407;24.142;-110.310;2023-08-06T03:45:57;48.85;;;6.85;;
41721;SDS011;27407;24.142;-110.310;2023-08-06T03:48:30;21.67;;;4.32;;
41721;SDS011;27407;24.142;-110.310;2023-08-06T03:50:57;23.80;;;4.40;;
41721;SDS011;27407;24.142;-110.310;2023-08-06T03:53:26;25.75;;;5.05;;
41721;SDS011;27407;24.142;-110.310;2023-08-06T03:55:52;20.90;;;4.63;;
41721;SDS011;27407;24.142;-110.310;2023-08-06T03:58:21;38.53;;;5.25;;
41721;SDS011;27407;24.142;-110.310;2023-08-06T04:00:47;23.50;;;4.55;;
41721;SDS011;27407;24.142;-110.310;2023-08-06T04:03:14;16.38;;;4.00;;
41721;SDS011;27407;24.142;-110.310;2023-08-06T04:05:41;32.78;;;4.88;;
41721;SDS011;27407;24.142;-110.310;2023-08-06T04:08:07;72.72;;;9.70;;
41721;SDS011;27407;24.142;-110.310;2023-08-06T04:10:34;16.52;;;4.05;;
41721;SDS011;27407;24.142;-110.310;2023-08-06T04:13:00;17.27;;;4.22;;
41721;SDS011;27407;24.142;-110.310;2023-08-06T04:15:27;24.20;;;4.80;;
41721;SDS011;27407;24.142;-110.310;2023-08-06T04:17:54;14.90;;;4.10;;
41721;SDS011;27407;24.142;-110.310;2023-08-06T04:20:22;16.50;;;4.25;;
41721;SDS011;27407;24.142;-110.310;2023-08-06T04:22:48;18.00;;;4.00;;
41721;SDS011;27407;24.142;-110.310;2023-08-06T04:25:15;25.52;;;4.90;;
41721;SDS011;27407;24.142;-110.310;2023-08-06T04:27:47;28.20;;;5.68;;
41721;SDS011;27407;24.142;-110.310;2023-08-06T04:30:13;22.92;;;4.18;;
41721;SDS011;27407;24.142;-110.310;2023-08-06T04:32:40;17.98;;;4.38;;
41721;SDS011;27407;24.142;-110.310;2023-08-06T04:35:07;23.63;;;4.80;;
41721;SDS011;27407;24.142;-110.310;2023-08-06T04:37:34;22.08;;;4.93;;
41721;SDS011;27407;24.142;-110.310;2023-08-06T04:40:00;43.47;;;5.40;;
41721;SDS011;27407;24.142;-110.310;2023-08-06T04:42:27;44.67;;;5.50;;
41721;SDS011;27407;24.142;-110.310;2023-08-06T04:44:53;29.77;;;5.80;;
41721;SDS011;27407;24.142;-110.310;2023-08-06T04:47:20;20.00;;;4.38;;
41721;SDS011;27407;24.142;-110.310;2023-08-06T04:49:47;25.38;;;4.90;;
41721;SDS011;27407;24.142;-110.310;2023-08-06T04:52:13;13.80;;;4.00;;
41721;SDS011;27407;24.142;-110.310;2023-08-06T04:54:40;24.55;;;4.90;;
41721;SDS011;27407;24.142;-110.310;2023-08-06T04:57:06;20.88;;;4.35;;
41721;SDS011;27407;24.142;-110.310;2023-08-06T04:59:34;16.75;;;4.63;;
41721;SDS011;27407;24.142;-110.310;2023-08-06T05:02:01;31.27;;;4.68;;
41721;SDS011;27407;24.142;-110.310;2023-08-06T05:04:27;32.50;;;5.15;;
41721;SDS011;27407;24.142;-110.310;2023-08-06T05:06:54;32.80;;;5.28;;
41721;SDS011;27407;24.142;-110.310;2023-08-06T05:09:21;29.83;;;6.03;;
41721;SDS011;27407;24.142;-110.310;2023-08-06T05:11:47;53.85;;;5.43;;
41721;SDS011;27407;24.142;-110.310;2023-08-06T05:14:14;51.85;;;7.38;;
41721;SDS011;27407;24.142;-110.310;2023-08-06T05:16:41;25.70;;;4.30;;
41721;SDS011;27407;24.142;-110.310;2023-08-06T05:19:07;70.53;;;8.10;;
41721;SDS011;27407;24.142;-110.310;2023-08-06T05:21:34;19.80;;;4.93;;
41721;SDS011;27407;24.142;-110.310;2023-08-06T05:24:01;57.80;;;6.85;;
41721;SDS011;27407;24.142;-110.310;2023-08-06T05:26:27;24.13;;;4.72;;
41721;SDS011;27407;24.142;-110.310;2023-08-06T05:28:54;22.60;;;4.47;;
41721;SDS011;27407;24.142;-110.310;2023-08-06T05:31:21;26.73;;;5.10;;
41721;SDS011;27407;24.142;-110.310;2023-08-06T05:33:47;51.10;;;8.55;;
41721;SDS011;27407;24.142;-110.310;2023-08-06T06:23:49;37.97;;;6.63;;
41721;SDS011;27407;24.142;-110.310;2023-08-06T06:26:23;21.40;;;4.78;;
41721;SDS011;27407;24.142;-110.310;2023-08-06T06:28:49;28.27;;;5.20;;
41721;SDS011;27407;24.142;-110.310;2023-08-06T06:31:16;13.00;;;4.53;;
41721;SDS011;27407;24.142;-110.310;2023-08-06T06:33:43;25.42;;;4.03;;
41721;SDS011;27407;24.142;-110.310;2023-08-06T06:36:10;29.25;;;4.80;;
41721;SDS011;27407;24.142;-110.310;2023-08-06T06:38:37;36.45;;;5.68;;
41721;SDS011;27407;24.142;-110.310;2023-08-06T06:41:04;16.52;;;4.55;;
41721;SDS011;27407;24.142;-110.310;2023-08-06T06:43:30;28.35;;;4.72;;
41721;SDS011;27407;24.142;-110.310;2023-08-06T06:45:58;25.55;;;4.28;;
41721;SDS011;27407;24.142;-110.310;2023-08-06T06:48:26;18.60;;;4.57;;
41721;SDS011;27407;24.142;-110.310;2023-08-06T06:50:57;21.23;;;4.32;;
41721;SDS011;27407;24.142;-110.310;2023-08-06T06:53:24;20.02;;;4.55;;
41721;SDS011;27407;24.142;-110.310;2023-08-06T06:55:54;14.32;;;4.63;;
41721;SDS011;27407;24.142;-110.310;2023-08-06T06:58:21;121.60;;;12.07;;
41721;SDS011;27407;24.142;-110.310;2023-08-06T07:00:48;13.68;;;4.50;;
41721;SDS011;27407;24.142;-110.310;2023-08-06T07:03:15;31.05;;;6.25;;
41721;SDS011;27407;24.142;-110.310;2023-08-06T07:05:42;24.65;;;5.00;;
41721;SDS011;27407;24.142;-110.310;2023-08-06T07:08:10;37.05;;;5.82;;
41721;SDS011;27407;24.142;-110.310;2023-08-06T07:10:36;15.10;;;4.85;;
41721;SDS011;27407;24.142;-110.310;2023-08-06T07:13:04;33.42;;;6.55;;
41721;SDS011;27407;24.142;-110.310;2023-08-06T07:15:30;34.35;;;5.93;;
41721;SDS011;27407;24.142;-110.310;2023-08-06T07:17:57;18.17;;;5.07;;
41721;SDS011;27407;24.142;-110.310;2023-08-06T07:20:24;18.45;;;4.18;;
41721;SDS011;27407;24.142;-110.310;2023-08-06T07:22:51;21.38;;;4.75;;
41721;SDS011;27407;24.142;-110.310;2023-08-06T07:25:17;21.85;;;4.85;;
41721;SDS011;27407;24.142;-110.310;2023-08-06T07:27:44;34.10;;;5.00;;
41721;SDS011;27407;24.142;-110.310;2023-08-06T07:30:11;42.15;;;6.53;;
41721;SDS011;27407;24.142;-110.310;2023-08-06T07:32:38;21.92;;;5.40;;
41721;SDS011;27407;24.142;-110.310;2023-08-06T07:35:04;17.48;;;4.45;;
41721;SDS011;27407;24.142;-110.310;2023-08-06T07:37:33;20.27;;;4.88;;
41721;SDS011;27407;24.142;-110.310;2023-08-06T07:40:00;82.85;;;10.85;;
41721;SDS011;27407;24.142;-110.310;2023-08-06T07:42:26;29.15;;;5.38;;
41721;SDS011;27407;24.142;-110.310;2023-08-06T07:44:56;20.02;;;5.07;;
41721;SDS011;27407;24.142;-110.310;2023-08-06T07:47:23;31.67;;;4.95;;
41721;SDS011;27407;24.142;-110.310;2023-08-06T07:49:50;25.73;;;6.22;;
41721;SDS011;27407;24.142;-110.310;2023-08-06T07:52:17;15.18;;;4.65;;
41721;SDS011;27407;24.142;-110.310;2023-08-06T07:54:44;17.50;;;4.65;;
41721;SDS011;27407;24.142;-110.310;2023-08-06T07:57:10;20.05;;;4.38;;
41721;SDS011;27407;24.142;-110.310;2023-08-06T07:59:37;20.00;;;4.10;;
41721;SDS011;27407;24.142;-110.310;2023-08-06T08:02:04;23.23;;;4.60;;
41721;SDS011;27407;24.142;-110.310;2023-08-06T08:04:31;21.35;;;4.88;;
41721;SDS011;27407;24.142;-110.310;2023-08-06T08:06:57;20.48;;;4.13;;
41721;SDS011;27407;24.142;-110.310;2023-08-06T08:09:24;33.33;;;5.10;;
41721;SDS011;27407;24.142;-110.310;2023-08-06T08:11:51;19.73;;;4.93;;
41721;SDS011;27407;24.142;-110.310;2023-08-06T08:14:17;21.45;;;4.57;;
41721;SDS011;27407;24.142;-110.310;2023-08-06T08:16:44;26.83;;;4.35;;
41721;SDS011;27407;24.142;-110.310;2023-08-06T08:19:11;20.70;;;4.95;;
41721;SDS011;27407;24.142;-110.310;2023-08-06T08:21:37;24.08;;;4.43;;
41721;SDS011;27407;24.142;-110.310;2023-08-06T08:24:04;16.60;;;4.03;;
41721;SDS011;27407;24.142;-110.310;2023-08-06T08:26:31;13.05;;;4.00;;
41721;SDS011;27407;24.142;-110.310;2023-08-06T08:28:57;23.23;;;5.30;;
41721;SDS011;27407;24.142;-110.310;2023-08-06T08:31:24;24.00;;;6.75;;
41721;SDS011;27407;24.142;-110.310;2023-08-06T08:33:51;18.98;;;6.43;;
41721;SDS011;27407;24.142;-110.310;2023-08-06T08:36:18;15.02;;;6.85;;
41721;SDS011;27407;24.142;-110.310;2023-08-06T08:38:45;19.45;;;4.25;;
41721;SDS011;27407;24.142;-110.310;2023-08-06T08:41:12;7.43;;;3.10;;
41721;SDS011;27407;24.142;-110.310;2023-08-06T08:43:38;11.77;;;2.85;;
41721;SDS011;27407;24.142;-110.310;2023-08-06T08:46:07;7.20;;;2.80;;
41721;SDS011;27407;24.142;-110.310;2023-08-06T08:48:35;12.85;;;3.05;;
41721;SDS011;27407;24.142;-110.310;2023-08-06T08:51:02;27.15;;;3.38;;
41721;SDS011;27407;24.142;-110.310;2023-08-06T08:53:29;13.32;;;3.30;;
41721;SDS011;27407;24.142;-110.310;2023-08-06T08:55:57;5.05;;;2.10;;
41721;SDS011;27407;24.142;-110.310;2023-08-06T08:58:24;7.18;;;1.55;;
41721;SDS011;27407;24.142;-110.310;2023-08-06T09:00:51;14.82;;;1.88;;
41721;SDS011;27407;24.142;-110.310;2023-08-06T09:03:18;1.30;;;0.65;;
41721;SDS011;27407;24.142;-110.310;2023-08-06T09:05:46;4.47;;;1.40;;
41721;SDS011;27407;24.142;-110.310;2023-08-06T09:08:18;6.00;;;0.90;;
41721;SDS011;27407;24.142;-110.310;2023-08-06T09:10:49;3.17;;;0.75;;
41721;SDS011;27407;24.142;-110.310;2023-08-06T09:13:17;6.20;;;0.95;;
41721;SDS011;27407;24.142;-110.310;2023-08-06T09:15:45;11.35;;;1.25;;
41721;SDS011;27407;24.142;-110.310;2023-08-06T09:18:12;8.93;;;1.23;;
41721;SDS011;27407;24.142;-110.310;2023-08-06T09:20:39;3.58;;;1.00;;
41721;SDS011;27407;24.142;-110.310;2023-08-06T09:23:09;4.68;;;1.17;;
41721;SDS011;27407;24.142;-110.310;2023-08-06T09:25:39;5.47;;;1.10;;
41721;SDS011;27407;24.142;-110.310;2023-08-06T09:28:06;5.47;;;1.00;;
41721;SDS011;27407;24.142;-110.310;2023-08-06T09:30:33;15.43;;;1.50;;
41721;SDS011;27407;24.142;-110.310;2023-08-06T09:33:07;5.50;;;1.25;;
41721;SDS011;27407;24.142;-110.310;2023-08-06T09:35:39;3.60;;;1.15;;
41721;SDS011;27407;24.142;-110.310;2023-08-06T09:38:06;11.02;;;1.50;;
41721;SDS011;27407;24.142;-110.310;2023-08-06T09:40:34;6.15;;;1.00;;
41721;SDS011;27407;24.142;-110.310;2023-08-06T09:43:00;6.00;;;1.08;;
41721;SDS011;27407;24.142;-110.310;2023-08-06T10:28:00;6.40;;;1.33;;
41721;SDS011;27407;24.142;-110.310;2023-08-06T10:30:46;3.92;;;0.80;;
41721;SDS011;27407;24.142;-110.310;2023-08-06T10:33:13;10.07;;;1.10;;
41721;SDS011;27407;24.142;-110.310;2023-08-06T10:35:48;1.67;;;0.80;;
41721;SDS011;27407;24.142;-110.310;2023-08-06T10:38:22;4.47;;;0.82;;
41721;SDS011;27407;24.142;-110.310;2023-08-06T10:43:31;3.38;;;0.80;;
41721;SDS011;27407;24.142;-110.310;2023-08-06T10:46:01;2.78;;;0.65;;
41721;SDS011;27407;24.142;-110.310;2023-08-06T10:48:30;21.88;;;2.40;;
41721;SDS011;27407;24.142;-110.310;2023-08-06T10:50:59;12.38;;;1.30;;
41721;SDS011;27407;24.142;-110.310;2023-08-06T10:53:27;7.05;;;1.20;;
41721;SDS011;27407;24.142;-110.310;2023-08-06T10:55:53;3.25;;;0.70;;
41721;SDS011;27407;24.142;-110.310;2023-08-06T10:58:20;10.05;;;1.33;;
41721;SDS011;27407;24.142;-110.310;2023-08-06T11:00:47;19.83;;;1.42;;
41721;SDS011;27407;24.142;-110.310;2023-08-06T11:03:14;5.60;;;1.13;;
41721;SDS011;27407;24.142;-110.310;2023-08-06T11:05:41;4.88;;;1.02;;
41721;SDS011;27407;24.142;-110.310;2023-08-06T11:08:22;4.65;;;1.05;;
41721;SDS011;27407;24.142;-110.310;2023-08-06T11:10:52;3.20;;;0.70;;
41721;SDS011;27407;24.142;-110.310;2023-08-06T11:13:22;12.57;;;1.10;;
41721;SDS011;27407;24.142;-110.310;2023-08-06T11:15:51;7.05;;;1.23;;
41721;SDS011;27407;24.142;-110.310;2023-08-06T11:18:19;7.95;;;1.30;;
41721;SDS011;27407;24.142;-110.310;2023-08-06T11:20:46;5.47;;;1.13;;
41721;SDS011;27407;24.142;-110.310;2023-08-06T11:23:12;5.85;;;1.17;;
41721;SDS011;27407;24.142;-110.310;2023-08-06T11:25:46;3.72;;;1.25;;
41721;SDS011;27407;24.142;-110.310;2023-08-06T11:28:13;2.42;;;1.08;;
41721;SDS011;27407;24.142;-110.310;2023-08-06T11:30:40;3.42;;;1.17;;
41721;SDS011;27407;24.142;-110.310;2023-08-06T11:33:07;7.25;;;1.17;;
41721;SDS011;27407;24.142;-110.310;2023-08-06T11:35:37;10.88;;;1.17;;
41721;SDS011;27407;24.142;-110.310;2023-08-06T11:38:05;4.28;;;1.30;;
41721;SDS011;27407;24.142;-110.310;2023-08-06T11:40:32;11.52;;;1.20;;
41721;SDS011;27407;24.142;-110.310;2023-08-06T11:43:01;7.28;;;2.10;;
41721;SDS011;27407;24.142;-110.310;2023-08-06T11:45:27;8.45;;;3.00;;
41721;SDS011;27407;24.142;-110.310;2023-08-06T11:47:54;5.18;;;1.55;;
41721;SDS011;27407;24.142;-110.310;2023-08-06T11:50:24;7.68;;;1.42;;
41721;SDS011;27407;24.142;-110.310;2023-08-06T11:52:57;5.13;;;1.00;;
41721;SDS011;27407;24.142;-110.310;2023-08-06T11:55:26;11.88;;;1.70;;
41721;SDS011;27407;24.142;-110.310;2023-08-06T11:57:54;4.45;;;1.45;;
41721;SDS011;27407;24.142;-110.310;2023-08-06T12:00:22;4.22;;;1.80;;
41721;SDS011;27407;24.142;-110.310;2023-08-06T12:02:50;5.43;;;1.10;;
41721;SDS011;27407;24.142;-110.310;2023-08-06T12:07:52;4.40;;;1.27;;
41721;SDS011;27407;24.142;-110.310;2023-08-06T12:10:21;3.65;;;1.13;;
41721;SDS011;27407;24.142;-110.310;2023-08-06T12:12:50;3.33;;;1.00;;
41721;SDS011;27407;24.142;-110.310;2023-08-06T12:15:16;3.25;;;0.88;;
41721;SDS011;27407;24.142;-110.310;2023-08-06T12:17:43;2.28;;;0.73;;
41721;SDS011;27407;24.142;-110.310;2023-08-06T12:20:10;7.90;;;1.17;;
41721;SDS011;27407;24.142;-110.310;2023-08-06T12:22:37;9.68;;;0.95;;
41721;SDS011;27407;24.142;-110.310;2023-08-06T12:25:08;2.10;;;0.70;;
41721;SDS011;27407;24.142;-110.310;2023-08-06T12:27:40;4.15;;;0.80;;
41721;SDS011;27407;24.142;-110.310;2023-08-06T12:30:08;19.20;;;1.83;;
41721;SDS011;27407;24.142;-110.310;2023-08-06T12:32:35;10.00;;;1.00;;
41721;SDS011;27407;24.142;-110.310;2023-08-06T12:35:03;5.35;;;0.85;;
41721;SDS011;27407;24.142;-110.310;2023-08-06T12:37:30;9.30;;;1.90;;
41721;SDS011;27407;24.142;-110.310;2023-08-06T12:39:57;3.17;;;0.98;;
41721;SDS011;27407;24.142;-110.310;2023-08-06T12:42:23;5.15;;;0.93;;
41721;SDS011;27407;24.142;-110.310;2023-08-06T12:44:50;3.15;;;0.95;;
41721;SDS011;27407;24.142;-110.310;2023-08-06T12:47:17;6.65;;;1.05;;
41721;SDS011;27407;24.142;-110.310;2023-08-06T12:49:45;4.13;;;0.70;;
41721;SDS011;27407;24.142;-110.310;2023-08-06T12:52:12;3.00;;;0.70;;
41721;SDS011;27407;24.142;-110.310;2023-08-06T12:54:40;6.45;;;0.85;;
41721;SDS011;27407;24.142;-110.310;2023-08-06T12:57:07;2.42;;;0.70;;
41721;SDS011;27407;24.142;-110.310;2023-08-06T12:59:34;21.60;;;1.67;;
41721;SDS011;27407;24.142;-110.310;2023-08-06T13:02:02;43.45;;;4.05;;
41721;SDS011;27407;24.142;-110.310;2023-08-06T13:04:29;25.38;;;2.67;;
41721;SDS011;27407;24.142;-110.310;2023-08-06T13:06:56;13.20;;;1.77;;
41721;SDS011;27407;24.142;-110.310;2023-08-06T13:09:22;13.80;;;1.58;;
41721;SDS011;27407;24.142;-110.310;2023-08-06T13:11:50;17.08;;;1.98;;
41721;SDS011;27407;24.142;-110.310;2023-08-06T13:14:16;4.32;;;1.20;;
41721;SDS011;27407;24.142;-110.310;2023-08-06T13:16:43;8.88;;;1.35;;
41721;SDS011;27407;24.142;-110.310;2023-08-06T13:19:10;5.13;;;1.42;;
41721;SDS011;27407;24.142;-110.310;2023-08-06T13:24:07;5.50;;;0.98;;
41721;SDS011;27407;24.142;-110.310;2023-08-06T13:26:34;6.85;;;0.80;;
41721;SDS011;27407;24.142;-110.310;2023-08-06T13:29:01;6.15;;;1.10;;
41721;SDS011;27407;24.142;-110.310;2023-08-06T13:31:28;13.35;;;1.35;;
41721;SDS011;27407;24.142;-110.310;2023-08-06T13:33:55;2.70;;;0.70;;
41721;SDS011;27407;24.142;-110.310;2023-08-06T13:36:28;7.68;;;1.00;;
41721;SDS011;27407;24.142;-110.310;2023-08-06T13:38:56;4.32;;;0.80;;
41721;SDS011;27407;24.142;-110.310;2023-08-06T13:41:23;4.10;;;0.75;;
41721;SDS011;27407;24.142;-110.310;2023-08-06T13:43:49;6.03;;;0.82;;
41721;SDS011;27407;24.142;-110.310;2023-08-06T13:46:17;3.72;;;0.90;;
41721;SDS011;27407;24.142;-110.310;2023-08-06T13:48:46;4.28;;;1.00;;
41721;SDS011;27407;24.142;-110.310;2023-08-06T13:51:16;5.05;;;0.98;;
41721;SDS011;27407;24.142;-110.310;2023-08-06T13:53:43;20.92;;;2.67;;
41721;SDS011;27407;24.142;-110.310;2023-08-06T13:56:09;7.82;;;1.73;;
41721;SDS011;27407;24.142;-110.310;2023-08-06T13:58:37;9.82;;;1.55;;
41721;SDS011;27407;24.142;-110.310;2023-08-06T14:01:04;4.18;;;1.10;;
41721;SDS011;27407;24.142;-110.310;2023-08-06T14:03:31;15.75;;;2.10;;
41721;SDS011;27407;24.142;-110.310;2023-08-06T14:05:57;6.25;;;1.38;;
41721;SDS011;27407;24.142;-110.310;2023-08-06T14:08:24;8.90;;;2.13;;
41721;SDS011;27407;24.142;-110.310;2023-08-06T14:10:51;6.10;;;1.30;;
41721;SDS011;27407;24.142;-110.310;2023-08-06T14:13:18;19.10;;;2.63;;
41721;SDS011;27407;24.142;-110.310;2023-08-06T14:15:45;16.05;;;1.98;;
41721;SDS011;27407;24.142;-110.310;2023-08-06T14:18:13;16.30;;;1.85;;
41721;SDS011;27407;24.142;-110.310;2023-08-06T14:20:41;5.95;;;1.38;;
41721;SDS011;27407;24.142;-110.310;2023-08-06T14:23:08;6.03;;;1.08;;
41721;SDS011;27407;24.142;-110.310;2023-08-06T14:25:35;37.95;;;3.28;;
41721;SDS011;27407;24.142;-110.310;2023-08-06T14:28:03;16.60;;;1.73;;
41721;SDS011;27407;24.142;-110.310;2023-08-06T14:30:31;4.47;;;0.95;;
41721;SDS011;27407;24.142;-110.310;2023-08-06T14:32:59;8.45;;;1.30;;
41721;SDS011;27407;24.142;-110.310;2023-08-06T14:35:28;6.13;;;1.23;;
41721;SDS011;27407;24.142;-110.310;2023-08-06T14:37:55;4.40;;;0.90;;
41721;SDS011;27407;24.142;-110.310;2023-08-06T14:40:21;27.70;;;2.95;;
41721;SDS011;27407;24.142;-110.310;2023-08-06T14:42:48;3.38;;;1.10;;
41721;SDS011;27407;24.142;-110.310;2023-08-06T14:45:15;7.22;;;1.17;;
41721;SDS011;27407;24.142;-110.310;2023-08-06T14:47:41;7.53;;;1.30;;
41721;SDS011;27407;24.142;-110.310;2023-08-06T14:50:08;10.00;;;1.40;;
41721;SDS011;27407;24.142;-110.310;2023-08-06T14:52:35;9.80;;;1.15;;
41721;SDS011;27407;24.142;-110.310;2023-08-06T14:55:01;7.75;;;1.25;;
41721;SDS011;27407;24.142;-110.310;2023-08-06T14:57:29;5.70;;;1.15;;
41721;SDS011;27407;24.142;-110.310;2023-08-06T14:59:57;12.15;;;1.77;;
41721;SDS011;27407;24.142;-110.310;2023-08-06T15:02:23;6.53;;;1.33;;
41721;SDS011;27407;24.142;-110.310;2023-08-06T15:04:51;7.47;;;1.10;;
41721;SDS011;27407;24.142;-110.310;2023-08-06T15:07:18;10.63;;;1.75;;
41721;SDS011;27407;24.142;-110.310;2023-08-06T15:09:44;9.02;;;1.17;;
41721;SDS011;27407;24.142;-110.310;2023-08-06T15:12:11;10.82;;;1.65;;
41721;SDS011;27407;24.142;-110.310;2023-08-06T15:14:38;5.03;;;1.30;;
41721;SDS011;27407;24.142;-110.310;2023-08-06T15:17:04;8.05;;;1.55;;
41721;SDS011;27407;24.142;-110.310;2023-08-06T15:19:31;5.80;;;1.13;;
41721;SDS011;27407;24.142;-110.310;2023-08-06T15:21:57;11.02;;;1.52;;
41721;SDS011;27407;24.142;-110.310;2023-08-06T15:24:24;9.60;;;2.00;;
41721;SDS011;27407;24.142;-110.310;2023-08-06T15:26:51;12.13;;;1.55;;
41721;SDS011;27407;24.142;-110.310;2023-08-06T15:29:17;12.95;;;1.95;;
41721;SDS011;27407;24.142;-110.310;2023-08-06T15:31:44;15.80;;;1.58;;
41721;SDS011;27407;24.142;-110.310;2023-08-06T15:34:10;10.07;;;1.30;;
41721;SDS011;27407;24.142;-110.310;2023-08-06T15:36:37;8.10;;;0.95;;
41721;SDS011;27407;24.142;-110.310;2023-08-06T15:39:04;11.98;;;1.90;;
41721;SDS011;27407;24.142;-110.310;2023-08-06T15:41:30;3.60;;;0.93;;
41721;SDS011;27407;24.142;-110.310;2023-08-06T15:43:57;7.78;;;1.17;;
41721;SDS011;27407;24.142;-110.310;2023-08-06T15:46:24;15.65;;;1.60;;